Time;durP1;ratioP1;P1;durP2;ratioP2;P2;SDS_P1;SDS_P2;PMS_P1;PMS_P2;Temp;Humidity;BMP_temperature;BMP_pressure;BME280_temperature;BME280_humidity;BME280_pressure;Samples;Min_cycle;Max_cycle;Signal;HPM_P1;HPM_P2
2023/10/15 04:16:25;;;;;;;;;;;12.30;99.90;;;;;;5483936;23;19929;-62
2023/10/15 04:18:51;;;;;;;;;;;12.30;99.90;;;;;;4975620;28;20026;-62
2023/10/15 04:21:16;;;;;;;;;;;12.10;99.90;;;;;;4971018;28;19919;-62
2023/10/15 04:23:49;;;;;;;;;;;12.10;99.90;;;;;;4977409;28;19914;-61
2023/10/15 04:26:14;;;;;;;;;;;12.10;99.90;;;;;;4979093;28;19910;-62
2023/10/15 04:28:43;;;;;;;;;;;12.20;99.90;;;;;;4977077;28;19917;-59
2023/10/15 04:31:22;;;;;;;;;;;12.10;99.90;;;;;;4990208;23;19930;-62
2023/10/15 04:33:51;;;;;;;;;;;12.10;99.90;;;;;;4956521;29;19933;-62
2023/10/15 04:36:17;;;;;;;;;;;12.10;99.90;;;;;;4957966;28;19917;-63
2023/10/15 04:38:42;;;;;;;;;;;12.10;99.90;;;;;;4958389;28;19910;-63
2023/10/15 04:41:10;;;;;;;;;;;12.10;99.90;;;;;;4957574;28;19969;-63
2023/10/15 04:43:45;;;;;;;;;;;12.00;99.90;;;;;;4956997;28;19910;-62
2023/10/15 04:46:17;;;;;;;;;;;12.00;99.90;;;;;;4956932;28;20013;-63
2023/10/15 04:48:45;;;;;;;;;;;12.00;99.90;;;;;;4957340;28;19910;-64
2023/10/15 04:51:14;;;;;;;;;;;12.00;99.90;;;;;;4957240;28;20009;-64
2023/10/15 04:53:48;;;;;;;;;;;12.00;99.90;;;;;;4955980;29;19910;-63
2023/10/15 04:56:14;;;;;;;;;;;11.80;99.90;;;;;;4957481;28;20005;-63
2023/10/15 04:58:39;;;;;;;;;;;11.80;99.90;;;;;;4957094;28;19965;-63
2023/10/15 05:01:06;;;;;;;;;;;11.90;99.90;;;;;;4956521;28;20431;-62
2023/10/15 05:03:32;;;;;;;;;;;12.00;99.90;;;;;;4957439;28;20280;-62
2023/10/15 05:06:01;;;;;;;;;;;11.90;99.90;;;;;;4956490;28;19917;-64
2023/10/15 05:08:26;;;;;;;;;;;11.70;99.90;;;;;;4956328;28;19922;-63
2023/10/15 05:10:52;;;;;;;;;;;11.80;99.90;;;;;;4956188;28;19938;-63
2023/10/15 05:13:18;;;;;;;;;;;11.70;99.90;;;;;;4956325;28;19917;-63
2023/10/15 05:15:44;;;;;;;;;;;11.70;99.90;;;;;;4956560;28;20006;-64
2023/10/15 05:18:10;;;;;;;;;;;11.70;99.90;;;;;;4956431;28;19970;-63
2023/10/15 05:20:38;;;;;;;;;;;11.60;99.90;;;;;;4956319;28;19918;-63
2023/10/15 05:23:04;;;;;;;;;;;11.50;99.90;;;;;;4956256;28;20369;-62
2023/10/15 05:25:29;;;;;;;;;;;11.40;99.90;;;;;;4956280;28;19910;-63
2023/10/15 05:27:55;;;;;;;;;;;11.30;99.90;;;;;;4955951;28;19910;-63
2023/10/15 05:30:20;;;;;;;;;;;11.20;99.90;;;;;;4955673;28;19967;-63
2023/10/15 05:32:48;;;;;;;;;;;11.40;99.90;;;;;;4956223;28;19956;-64
2023/10/15 05:35:14;;;;;;;;;;;11.50;99.90;;;;;;4956020;28;19911;-63
2023/10/15 05:37:42;;;;;;;;;;;11.30;99.90;;;;;;4955745;28;19910;-63
2023/10/15 05:40:08;;;;;;;;;;;11.40;99.90;;;;;;4955841;28;19942;-64
2023/10/15 05:42:34;;;;;;;;;;;11.50;99.90;;;;;;4955722;28;19911;-63
2023/10/15 05:45:00;;;;;;;;;;;11.40;99.90;;;;;;4956010;28;19911;-63
2023/10/15 05:47:25;;;;;;;;;;;11.20;99.90;;;;;;4959338;28;19917;-65
2023/10/15 05:49:51;;;;;;;;;;;11.10;99.90;;;;;;4961119;28;19911;-63
2023/10/15 05:52:16;;;;;;;;;;;11.30;99.90;;;;;;4957781;28;20009;-62
2023/10/15 05:54:42;;;;;;;;;;;11.30;99.90;;;;;;4955769;28;19916;-63
2023/10/15 05:57:08;;;;;;;;;;;11.40;99.90;;;;;;4955403;28;20300;-63
2023/10/15 05:59:36;;;;;;;;;;;11.40;99.90;;;;;;4955749;28;19914;-62
2023/10/15 06:02:04;;;;;;;;;;;11.40;99.90;;;;;;4953739;28;19910;-63
2023/10/15 06:04:32;;;;;;;;;;;11.30;99.90;;;;;;4955401;28;19910;-63
2023/10/15 06:06:58;;;;;;;;;;;11.30;99.90;;;;;;4955395;28;19910;-63
2023/10/15 06:09:24;;;;;;;;;;;11.30;99.90;;;;;;4955501;28;19910;-63
2023/10/15 06:11:50;;;;;;;;;;;11.50;99.90;;;;;;4955359;28;19918;-63
2023/10/15 06:14:15;;;;;;;;;;;11.50;99.90;;;;;;4955530;28;19914;-63
2023/10/15 06:16:41;;;;;;;;;;;11.40;99.90;;;;;;4955382;28;20289;-63
2023/10/15 06:19:09;;;;;;;;;;;11.30;99.90;;;;;;4952360;28;19910;-64
2023/10/15 06:21:34;;;;;;;;;;;11.20;99.90;;;;;;4953044;28;19941;-64
2023/10/15 06:24:00;;;;;;;;;;;11.10;99.90;;;;;;4956085;28;19911;-64
2023/10/15 06:26:25;;;;;;;;;;;11.10;99.90;;;;;;4942980;28;19939;-60
2023/10/15 06:28:51;;;;;;;;;;;11.20;99.90;;;;;;4936164;29;19914;-63
2023/10/15 06:31:16;;;;;;;;;;;11.20;99.90;;;;;;4944717;29;19965;-63
2023/10/15 06:33:42;;;;;;;;;;;11.00;99.90;;;;;;4955487;28;19910;-64
2023/10/15 06:36:07;;;;;;;;;;;11.00;99.90;;;;;;4955080;28;19911;-63
2023/10/15 06:38:33;;;;;;;;;;;11.10;99.90;;;;;;4955410;28;20009;-63
2023/10/15 06:41:00;;;;;;;;;;;11.10;99.90;;;;;;4955176;28;19915;-63
2023/10/15 06:43:26;;;;;;;;;;;11.20;99.90;;;;;;4955014;28;19911;-61
2023/10/15 06:45:54;;;;;;;;;;;11.10;99.90;;;;;;4954985;28;20008;-64
2023/10/15 06:48:22;;;;;;;;;;;11.30;99.90;;;;;;4955269;28;19910;-62
2023/10/15 06:50:48;;;;;;;;;;;11.40;99.90;;;;;;4954651;28;19919;-63
2023/10/15 06:53:13;;;;;;;;;;;11.40;99.90;;;;;;4955132;28;19910;-64
2023/10/15 06:55:39;;;;;;;;;;;11.50;99.90;;;;;;4955292;28;19954;-64
2023/10/15 06:58:04;;;;;;;;;;;11.50;99.90;;;;;;4955006;28;19914;-65
2023/10/15 07:00:31;;;;;;;;;;;11.40;99.90;;;;;;4953709;28;19918;-63
2023/10/15 07:02:57;;;;;;;;;;;11.30;99.90;;;;;;4954918;28;19910;-63
2023/10/15 07:05:25;;;;;;;;;;;11.30;99.90;;;;;;4955072;28;19950;-65
2023/10/15 07:07:51;;;;;;;;;;;11.30;99.90;;;;;;4956488;28;20334;-64
2023/10/15 07:10:16;;;;;;;;;;;11.30;99.90;;;;;;4958363;28;19973;-65
2023/10/15 07:12:43;;;;;;;;;;;11.20;99.90;;;;;;4957358;28;19969;-65
2023/10/15 07:15:09;;;;;;;;;;;11.30;99.90;;;;;;4958500;28;19962;-64
2023/10/15 07:17:38;;;;;;;;;;;11.20;99.90;;;;;;4958090;28;19922;-64
2023/10/15 07:20:21;;;;;;;;;;;11.20;99.90;;;;;;4958414;28;19916;-64
2023/10/15 07:22:48;;;;;;;;;;;11.20;99.90;;;;;;4958830;28;20357;-65
2023/10/15 07:25:16;;;;;;;;;;;11.30;99.90;;;;;;4958295;28;20299;-63
2023/10/15 07:27:44;;;;;;;;;;;11.30;99.90;;;;;;4958458;28;20425;-64
2023/10/15 07:30:13;;;;;;;;;;;11.40;99.90;;;;;;4958141;28;19918;-65
2023/10/15 07:32:40;;;;;;;;;;;11.40;99.90;;;;;;4938874;29;20021;-62
2023/10/15 07:35:07;;;;;;;;;;;11.30;99.90;;;;;;4954130;29;20294;-64
2023/10/15 07:37:34;;;;;;;;;;;11.30;99.90;;;;;;4939131;29;19911;-61
2023/10/15 07:40:03;;;;;;;;;;;11.40;99.90;;;;;;4938747;29;20369;-64
2023/10/15 07:42:29;;;;;;;;;;;11.40;99.90;;;;;;4939093;29;19911;-63
2023/10/15 07:44:54;;;;;;;;;;;11.30;99.90;;;;;;4939208;29;19921;-63
2023/10/15 07:47:20;;;;;;;;;;;11.40;99.90;;;;;;4938543;29;20013;-65
2023/10/15 07:49:45;;;;;;;;;;;11.30;99.90;;;;;;4938858;29;19974;-65
2023/10/15 07:52:11;;;;;;;;;;;11.30;99.90;;;;;;4938701;29;19910;-64
2023/10/15 07:54:36;;;;;;;;;;;11.30;99.90;;;;;;4938931;29;19911;-63
2023/10/15 07:57:01;;;;;;;;;;;11.30;99.90;;;;;;4939056;29;19993;-64
2023/10/15 07:59:27;;;;;;;;;;;11.30;99.90;;;;;;4938435;29;19957;-63
2023/10/15 08:01:53;;;;;;;;;;;11.40;99.90;;;;;;4951458;29;19914;-63
2023/10/15 08:04:19;;;;;;;;;;;11.40;99.90;;;;;;4957978;28;20098;-66
2023/10/15 08:06:46;;;;;;;;;;;11.50;99.90;;;;;;4958330;28;19954;-65
2023/10/15 08:09:13;;;;;;;;;;;11.50;99.90;;;;;;4957655;28;19914;-66
2023/10/15 08:11:41;;;;;;;;;;;11.50;99.90;;;;;;4957541;28;19910;-65
2023/10/15 08:14:06;;;;;;;;;;;11.70;99.90;;;;;;4957532;28;20296;-64
2023/10/15 08:16:31;;;;;;;;;;;11.90;99.90;;;;;;4957830;28;19918;-69
2023/10/15 08:18:58;;;;;;;;;;;12.00;99.90;;;;;;4956518;28;19910;-68
2023/10/15 08:21:24;;;;;;;;;;;12.10;99.90;;;;;;4971951;28;20005;-67
2023/10/15 08:23:50;;;;;;;;;;;12.00;99.90;;;;;;4957171;28;20001;-66
2023/10/15 08:26:15;;;;;;;;;;;12.20;99.90;;;;;;4957399;28;19957;-68
2023/10/15 08:28:41;;;;;;;;;;;12.10;99.90;;;;;;4957065;28;19918;-67
2023/10/15 08:31:06;;;;;;;;;;;12.20;99.90;;;;;;4956189;28;19918;-68
2023/10/15 08:33:32;;;;;;;;;;;12.20;99.90;;;;;;4955502;28;19917;-67
2023/10/15 08:35:59;;;;;;;;;;;12.30;99.90;;;;;;4954897;28;19911;-67
2023/10/15 08:38:25;;;;;;;;;;;12.30;99.90;;;;;;4956104;28;19911;-66
2023/10/15 08:40:53;;;;;;;;;;;12.40;99.90;;;;;;4957034;28;19914;-68
2023/10/15 08:43:26;;;;;;;;;;;12.40;99.90;;;;;;4955978;28;21462;-67
2023/10/15 08:45:52;;;;;;;;;;;12.50;99.90;;;;;;4955527;29;20292;-66
2023/10/15 08:48:18;;;;;;;;;;;12.60;99.90;;;;;;4956389;28;20345;-65
2023/10/15 08:50:44;;;;;;;;;;;12.70;99.90;;;;;;4956916;28;19955;-67
2023/10/15 08:53:11;;;;;;;;;;;12.80;99.90;;;;;;4958545;28;20005;-69
2023/10/15 08:55:37;;;;;;;;;;;12.90;99.90;;;;;;4959817;28;19974;-68
2023/10/15 08:58:02;;;;;;;;;;;13.00;99.90;;;;;;4958025;28;19941;-67
2023/10/15 09:00:31;;;;;;;;;;;13.10;99.90;;;;;;4956383;28;19965;-67
2023/10/15 09:02:57;;;;;;;;;;;13.10;99.90;;;;;;4956429;28;20293;-68
2023/10/15 09:05:25;;;;;;;;;;;13.30;99.90;;;;;;4956507;28;20113;-67
2023/10/15 09:07:52;;;;;;;;;;;13.40;99.90;;;;;;4956701;28;19930;-67
2023/10/15 09:10:17;;;;;;;;;;;13.60;99.90;;;;;;4956610;28;19918;-66
2023/10/15 09:12:43;;;;;;;;;;;14.00;99.90;;;;;;4956712;28;19910;-68
2023/10/15 09:15:15;;;;;;;;;;;14.20;99.90;;;;;;4971579;28;19910;-67
2023/10/15 09:18:01;;;;;;;;;;;14.50;99.90;;;;;;4956773;28;20448;-68
2023/10/15 09:20:27;;;;;;;;;;;14.50;99.90;;;;;;4956140;28;19914;-67
2023/10/15 09:22:59;;;;;;;;;;;14.50;99.90;;;;;;4956752;28;19918;-67
2023/10/15 09:25:25;;;;;;;;;;;14.70;99.90;;;;;;4956461;28;20013;-69
2023/10/15 09:27:52;;;;;;;;;;;14.70;99.30;;;;;;4956595;28;19922;-70
2023/10/15 09:30:21;;;;;;;;;;;14.60;98.80;;;;;;4955687;28;19945;-69
2023/10/15 09:32:47;;;;;;;;;;;14.50;98.00;;;;;;4954447;29;20001;-70
2023/10/15 09:35:13;;;;;;;;;;;14.40;98.10;;;;;;4954889;29;20364;-70
2023/10/15 09:37:39;;;;;;;;;;;14.30;98.10;;;;;;4956320;28;19918;-69
2023/10/15 09:40:09;;;;;;;;;;;14.20;98.30;;;;;;4954508;28;20025;-68
2023/10/15 09:42:38;;;;;;;;;;;14.30;98.20;;;;;;4955906;28;19926;-70
2023/10/15 09:45:05;;;;;;;;;;;14.40;98.00;;;;;;4954506;29;20421;-68
2023/10/15 09:47:32;;;;;;;;;;;14.70;97.70;;;;;;4955454;28;19910;-69
2023/10/15 09:49:59;;;;;;;;;;;15.00;97.40;;;;;;4955858;28;20353;-69
2023/10/15 09:52:26;;;;;;;;;;;15.10;97.10;;;;;;4954382;28;19925;-69
2023/10/15 09:54:55;;;;;;;;;;;15.60;96.50;;;;;;4955857;28;19910;-71
2023/10/15 09:57:21;;;;;;;;;;;16.70;95.20;;;;;;4955758;28;19917;-70
2023/10/15 09:59:53;;;;;;;;;;;18.70;92.80;;;;;;4954139;29;20429;-70
2023/10/15 10:02:23;;;;;;;;;;;20.30;90.50;;;;;;4953817;28;20385;-69
2023/10/15 10:04:59;;;;;;;;;;;20.60;86.90;;;;;;4955414;28;19942;-69
2023/10/15 10:07:47;;;;;;;;;;;20.80;85.70;;;;;;4955953;28;20001;-69
2023/10/15 10:10:17;;;;;;;;;;;21.40;84.00;;;;;;4955554;28;20004;-69
2023/10/15 10:12:59;;;;;;;;;;;23.10;80.00;;;;;;4955759;28;19910;-68
2023/10/15 10:15:57;;;;;;;;;;;24.90;76.10;;;;;;4956400;28;19978;-69
2023/10/15 10:18:27;;;;;;;;;;;26.10;72.90;;;;;;4953369;29;19918;-69
2023/10/15 10:20:55;;;;;;;;;;;26.90;69.10;;;;;;4953420;29;19914;-69
2023/10/15 10:23:22;;;;;;;;;;;26.70;68.00;;;;;;4953015;29;19911;-69
2023/10/15 10:25:48;;;;;;;;;;;26.90;67.70;;;;;;4936959;29;19918;-69
2023/10/15 10:28:15;;;;;;;;;;;27.70;66.20;;;;;;4953430;29;19910;-69
2023/10/15 10:30:57;;;;;;;;;;;26.30;64.10;;;;;;4952902;29;20061;-68
2023/10/15 10:33:40;;;;;;;;;;;23.60;66.70;;;;;;4952772;29;19924;-69
2023/10/15 10:36:14;;;;;;;;;;;21.50;70.20;;;;;;4953314;29;19918;-68
2023/10/15 10:38:41;;;;;;;;;;;20.60;71.90;;;;;;4936868;29;19918;-70
2023/10/15 10:41:13;;;;;;;;;;;18.80;75.30;;;;;;4953206;29;20013;-69
2023/10/15 10:43:40;;;;;;;;;;;17.60;78.50;;;;;;4939690;29;19975;-69
2023/10/15 10:46:06;;;;;;;;;;;18.80;78.60;;;;;;4956827;29;19914;-68
2023/10/15 10:48:33;;;;;;;;;;;20.90;74.40;;;;;;4956990;29;20057;-69
2023/10/15 10:51:07;;;;;;;;;;;20.30;74.80;;;;;;4956960;29;19945;-69
2023/10/15 10:53:33;;;;;;;;;;;19.10;76.00;;;;;;4956588;29;20005;-68
2023/10/15 10:56:03;;;;;;;;;;;18.10;77.80;;;;;;4939635;29;20001;-68
2023/10/15 10:58:29;;;;;;;;;;;17.40;79.90;;;;;;4939833;29;20021;-68
2023/10/15 11:00:58;;;;;;;;;;;16.70;81.50;;;;;;4945441;29;19918;-67
2023/10/15 11:03:24;;;;;;;;;;;16.30;82.50;;;;;;4958400;28;19911;-67
2023/10/15 11:05:49;;;;;;;;;;;16.00;83.90;;;;;;4958520;28;20345;-68
2023/10/15 11:08:18;;;;;;;;;;;15.80;84.20;;;;;;4958486;28;19997;-67
2023/10/15 11:10:45;;;;;;;;;;;15.60;85.30;;;;;;4958496;28;20341;-69
2023/10/15 11:13:11;;;;;;;;;;;15.60;86.20;;;;;;4958410;28;20396;-68
2023/10/15 11:15:37;;;;;;;;;;;15.60;85.60;;;;;;4958247;28;19910;-69
2023/10/15 11:18:05;;;;;;;;;;;15.60;84.70;;;;;;4957924;28;20417;-68
2023/10/15 11:20:33;;;;;;;;;;;15.60;82.90;;;;;;4958081;28;19919;-69
2023/10/15 11:23:01;;;;;;;;;;;15.60;83.30;;;;;;4958451;28;19979;-69
2023/10/15 11:25:26;;;;;;;;;;;15.70;84.00;;;;;;4958536;28;19978;-69
2023/10/15 11:27:52;;;;;;;;;;;15.70;84.90;;;;;;4958639;28;19933;-67
2023/10/15 11:30:21;;;;;;;;;;;15.90;84.90;;;;;;4958112;28;19925;-67
2023/10/15 11:32:51;;;;;;;;;;;15.90;85.20;;;;;;4958351;28;19914;-67
2023/10/15 11:35:17;;;;;;;;;;;15.80;84.70;;;;;;4958154;28;19910;-67
2023/10/15 11:37:44;;;;;;;;;;;15.90;84.50;;;;;;4958104;28;19977;-68
2023/10/15 11:40:11;;;;;;;;;;;16.10;84.20;;;;;;4957845;28;20017;-68
2023/10/15 11:42:47;;;;;;;;;;;16.20;84.90;;;;;;4958186;28;20411;-68
2023/10/15 11:45:16;;;;;;;;;;;16.50;84.90;;;;;;4957901;28;19921;-68
2023/10/15 11:47:44;;;;;;;;;;;16.60;84.60;;;;;;4957799;28;19917;-68
2023/10/15 11:50:12;;;;;;;;;;;16.60;83.00;;;;;;4958072;28;19966;-67
2023/10/15 11:52:44;;;;;;;;;;;16.30;83.00;;;;;;4958019;28;19910;-68
2023/10/15 11:55:16;;;;;;;;;;;16.00;84.10;;;;;;4957979;28;19911;-68
2023/10/15 11:57:49;;;;;;;;;;;15.70;85.50;;;;;;4959047;28;19911;-68
2023/10/15 12:00:31;;;;;;;;;;;15.50;85.00;;;;;;4960159;28;19915;-67
2023/10/15 12:02:59;;;;;;;;;;;15.30;83.60;;;;;;4959776;28;19911;-67
2023/10/15 12:05:27;;;;;;;;;;;15.00;83.60;;;;;;4957208;29;19965;-68
2023/10/15 12:07:53;;;;;;;;;;;14.90;83.10;;;;;;4956673;29;19915;-67
2023/10/15 12:10:19;;;;;;;;;;;14.80;83.50;;;;;;4973086;28;19970;-68
2023/10/15 12:12:45;;;;;;;;;;;14.90;84.80;;;;;;4958807;28;20499;-68
2023/10/15 12:15:10;;;;;;;;;;;14.90;83.20;;;;;;4958328;28;20393;-68
2023/10/15 12:17:36;;;;;;;;;;;14.90;82.50;;;;;;4958119;28;19933;-68
2023/10/15 12:20:06;;;;;;;;;;;14.80;84.70;;;;;;4958200;28;19914;-69
2023/10/15 12:22:32;;;;;;;;;;;15.00;82.20;;;;;;4958298;28;19910;-69
2023/10/15 12:25:00;;;;;;;;;;;15.10;80.70;;;;;;4957372;28;19934;-68
2023/10/15 12:27:28;;;;;;;;;;;15.30;81.30;;;;;;4957599;28;19914;-68
2023/10/15 12:29:54;;;;;;;;;;;15.60;80.90;;;;;;4957730;28;19938;-68
2023/10/15 12:32:20;;;;;;;;;;;15.90;79.90;;;;;;4957544;28;19973;-67
2023/10/15 12:34:45;;;;;;;;;;;16.00;80.00;;;;;;4956575;29;19910;-68
2023/10/15 12:37:13;;;;;;;;;;;15.90;79.80;;;;;;4957884;28;19961;-68
2023/10/15 12:39:45;;;;;;;;;;;15.90;81.00;;;;;;4957761;28;19950;-67
2023/10/15 12:42:15;;;;;;;;;;;15.80;80.30;;;;;;4957620;28;20361;-68
2023/10/15 12:44:44;;;;;;;;;;;15.60;81.60;;;;;;4957083;28;19910;-68
2023/10/15 12:47:09;;;;;;;;;;;15.50;81.60;;;;;;4956649;28;19911;-67
2023/10/15 12:49:36;;;;;;;;;;;15.50;82.80;;;;;;4957038;28;19937;-68
2023/10/15 12:52:02;;;;;;;;;;;15.50;82.10;;;;;;4956765;28;19933;-67
2023/10/15 12:54:28;;;;;;;;;;;15.70;81.90;;;;;;4956731;28;19917;-67
2023/10/15 12:56:57;;;;;;;;;;;15.80;80.80;;;;;;4956890;28;19946;-68
2023/10/15 12:59:23;;;;;;;;;;;15.70;79.30;;;;;;4956725;28;19910;-67
2023/10/15 13:01:48;;;;;;;;;;;15.70;79.60;;;;;;4956899;28;19917;-68
2023/10/15 13:04:14;;;;;;;;;;;15.70;79.80;;;;;;4956742;28;20009;-67
2023/10/15 13:06:40;;;;;;;;;;;15.60;79.60;;;;;;4956414;28;19966;-68
2023/10/15 13:09:08;;;;;;;;;;;15.40;81.10;;;;;;4956542;28;19974;-67
2023/10/15 13:11:34;;;;;;;;;;;15.30;82.70;;;;;;4956624;28;20338;-68
2023/10/15 13:14:00;;;;;;;;;;;15.10;82.20;;;;;;4955943;28;20302;-67
2023/10/15 13:16:25;;;;;;;;;;;15.00;78.50;;;;;;4956176;28;19921;-69
2023/10/15 13:18:52;;;;;;;;;;;15.10;77.20;;;;;;4955961;28;20334;-68
2023/10/15 13:21:18;;;;;;;;;;;15.00;76.80;;;;;;4954859;28;19915;-68
2023/10/15 13:23:44;;;;;;;;;;;14.90;77.30;;;;;;4956214;28;19937;-68
2023/10/15 13:26:09;;;;;;;;;;;15.00;77.60;;;;;;4956061;28;20013;-68
2023/10/15 13:28:35;;;;;;;;;;;15.10;76.40;;;;;;4956256;28;19981;-68
2023/10/15 13:31:02;;;;;;;;;;;15.20;76.70;;;;;;4955869;28;20445;-67
2023/10/15 13:33:27;;;;;;;;;;;15.10;77.30;;;;;;4955805;28;20289;-68
2023/10/15 13:35:57;;;;;;;;;;;15.20;76.70;;;;;;4955869;28;19910;-68
2023/10/15 13:38:23;;;;;;;;;;;15.10;76.00;;;;;;4956003;28;19910;-69
2023/10/15 13:40:48;;;;;;;;;;;15.00;77.10;;;;;;4955648;28;19914;-68
2023/10/15 13:43:14;;;;;;;;;;;14.90;77.10;;;;;;4955616;28;19918;-68
2023/10/15 13:45:39;;;;;;;;;;;14.90;77.20;;;;;;4956181;28;20012;-68
2023/10/15 13:48:05;;;;;;;;;;;15.00;77.60;;;;;;4955774;28;19954;-68
2023/10/15 13:50:31;;;;;;;;;;;14.90;77.80;;;;;;4970669;28;19941;-68
2023/10/15 13:52:57;;;;;;;;;;;15.00;77.70;;;;;;4955687;28;19958;-68
2023/10/15 13:55:23;;;;;;;;;;;14.90;77.60;;;;;;4956082;28;19929;-69
2023/10/15 13:57:51;;;;;;;;;;;14.80;78.50;;;;;;4955727;28;19997;-68
2023/10/15 14:00:16;;;;;;;;;;;14.70;79.10;;;;;;4955711;28;19921;-68
2023/10/15 14:02:43;;;;;;;;;;;14.70;79.00;;;;;;4955431;28;19911;-68
2023/10/15 14:05:09;;;;;;;;;;;14.70;77.40;;;;;;4954252;28;19915;-68
2023/10/15 14:07:36;;;;;;;;;;;14.70;78.30;;;;;;4955374;28;19946;-68
2023/10/15 14:10:03;;;;;;;;;;;14.70;78.70;;;;;;4955324;28;19911;-68
2023/10/15 14:12:29;;;;;;;;;;;14.60;77.50;;;;;;4955598;28;19911;-68
2023/10/15 14:14:55;;;;;;;;;;;14.50;79.10;;;;;;4954151;29;19917;-68
2023/10/15 14:17:20;;;;;;;;;;;14.60;80.80;;;;;;4954313;28;20390;-69
2023/10/15 14:19:46;;;;;;;;;;;14.60;82.70;;;;;;4953869;29;19918;-68
2023/10/15 14:22:11;;;;;;;;;;;14.50;83.70;;;;;;4955194;28;19918;-69
2023/10/15 14:24:36;;;;;;;;;;;14.60;84.40;;;;;;4955499;28;19922;-68
2023/10/15 14:27:02;;;;;;;;;;;14.50;83.90;;;;;;4955615;28;20006;-68
2023/10/15 14:29:27;;;;;;;;;;;14.60;83.80;;;;;;4955603;28;19911;-69
2023/10/15 14:31:53;;;;;;;;;;;14.50;84.20;;;;;;4953788;28;20393;-69
2023/10/15 14:34:18;;;;;;;;;;;14.40;84.20;;;;;;4955027;28;19945;-68
2023/10/15 14:36:48;;;;;;;;;;;14.30;82.80;;;;;;4955327;28;19914;-68
2023/10/15 14:39:17;;;;;;;;;;;14.40;79.70;;;;;;4955346;28;19965;-68
2023/10/15 14:41:43;;;;;;;;;;;14.30;78.90;;;;;;4955738;28;20351;-66
2023/10/15 14:44:09;;;;;;;;;;;14.20;77.70;;;;;;4956549;28;19945;-68
2023/10/15 14:46:37;;;;;;;;;;;14.20;77.90;;;;;;4955803;28;20313;-69
2023/10/15 14:49:03;;;;;;;;;;;14.20;78.10;;;;;;4955592;28;19933;-69
2023/10/15 14:51:28;;;;;;;;;;;14.30;77.30;;;;;;4970202;28;20300;-69
2023/10/15 14:53:54;;;;;;;;;;;14.40;76.80;;;;;;4955232;28;19911;-69
2023/10/15 14:56:21;;;;;;;;;;;14.40;76.90;;;;;;4955070;28;19929;-69
2023/10/15 14:58:46;;;;;;;;;;;14.50;77.50;;;;;;4970126;28;19938;-69
2023/10/15 15:01:12;;;;;;;;;;;14.40;76.80;;;;;;4954900;28;20013;-70
2023/10/15 15:03:37;;;;;;;;;;;14.50;76.20;;;;;;4954442;29;19929;-69
2023/10/15 15:06:06;;;;;;;;;;;14.60;76.10;;;;;;4956466;28;19910;-69
2023/10/15 15:08:32;;;;;;;;;;;14.50;76.20;;;;;;4955813;28;20297;-70
2023/10/15 15:10:57;;;;;;;;;;;14.50;75.80;;;;;;4954915;28;19917;-69
2023/10/15 15:13:22;;;;;;;;;;;14.40;75.40;;;;;;4955206;28;19910;-69
2023/10/15 15:15:48;;;;;;;;;;;14.50;75.50;;;;;;4954859;28;19918;-70
2023/10/15 15:18:13;;;;;;;;;;;14.50;74.30;;;;;;4954532;28;19910;-70
2023/10/15 15:20:39;;;;;;;;;;;14.50;73.70;;;;;;4954817;28;19914;-70
2023/10/15 15:23:04;;;;;;;;;;;14.50;74.00;;;;;;4954831;28;19921;-70
2023/10/15 15:25:30;;;;;;;;;;;14.40;74.60;;;;;;4953621;29;20005;-70
2023/10/15 15:27:57;;;;;;;;;;;14.40;74.40;;;;;;4954820;28;19944;-69
2023/10/15 15:30:22;;;;;;;;;;;14.40;74.30;;;;;;4958049;28;19914;-69
2023/10/15 15:32:48;;;;;;;;;;;14.50;74.00;;;;;;4958038;28;20429;-70
2023/10/15 15:35:14;;;;;;;;;;;14.30;73.60;;;;;;4956929;29;20417;-70
2023/10/15 15:37:41;;;;;;;;;;;14.30;74.50;;;;;;4958300;28;19938;-70
2023/10/15 15:40:07;;;;;;;;;;;14.20;74.20;;;;;;4972758;28;20024;-69
2023/10/15 15:42:33;;;;;;;;;;;14.10;74.10;;;;;;4958364;28;20373;-70
2023/10/15 15:44:59;;;;;;;;;;;14.10;74.60;;;;;;4957937;28;19917;-69
2023/10/15 15:47:27;;;;;;;;;;;14.00;74.80;;;;;;4957913;28;19917;-71
2023/10/15 15:49:53;;;;;;;;;;;14.00;75.10;;;;;;4956704;29;19949;-70
2023/10/15 15:52:19;;;;;;;;;;;14.00;75.00;;;;;;4957833;28;19917;-70
2023/10/15 15:54:44;;;;;;;;;;;13.90;74.70;;;;;;4956570;29;19918;-69
2023/10/15 15:57:12;;;;;;;;;;;14.10;75.10;;;;;;4957858;28;19965;-69
2023/10/15 15:59:37;;;;;;;;;;;14.10;75.00;;;;;;4958035;28;19911;-67
2023/10/15 16:02:03;;;;;;;;;;;14.10;74.90;;;;;;4957972;28;19910;-68
2023/10/15 16:04:28;;;;;;;;;;;14.10;75.10;;;;;;4957322;28;19957;-67
2023/10/15 16:06:54;;;;;;;;;;;14.10;75.20;;;;;;4957767;28;19942;-67
2023/10/15 16:09:20;;;;;;;;;;;14.10;75.70;;;;;;4958450;28;20266;-67
2023/10/15 16:11:45;;;;;;;;;;;14.10;76.30;;;;;;4957546;28;19914;-67
2023/10/15 16:14:11;;;;;;;;;;;14.00;76.40;;;;;;4957839;28;19934;-68
2023/10/15 16:16:36;;;;;;;;;;;13.90;76.40;;;;;;4957365;28;19939;-68
2023/10/15 16:19:03;;;;;;;;;;;13.80;76.40;;;;;;4956984;28;19997;-68
2023/10/15 16:21:28;;;;;;;;;;;13.80;76.50;;;;;;4957333;28;19914;-68
2023/10/15 16:23:54;;;;;;;;;;;13.70;76.70;;;;;;4957434;28;19911;-67
2023/10/15 16:26:19;;;;;;;;;;;13.60;77.00;;;;;;4957424;28;19911;-69
2023/10/15 16:28:45;;;;;;;;;;;13.60;77.60;;;;;;4957404;28;19914;-69
2023/10/15 16:31:11;;;;;;;;;;;13.50;77.70;;;;;;4957897;28;19924;-69
2023/10/15 16:33:36;;;;;;;;;;;13.40;78.50;;;;;;4957020;28;19922;-68
2023/10/15 16:36:04;;;;;;;;;;;13.30;78.90;;;;;;4956928;28;19910;-68
2023/10/15 16:38:29;;;;;;;;;;;13.30;79.40;;;;;;4956995;28;19911;-66
2023/10/15 16:40:55;;;;;;;;;;;13.20;79.20;;;;;;4956254;28;19918;-67
2023/10/15 16:43:20;;;;;;;;;;;13.30;79.30;;;;;;4957091;28;19933;-68
2023/10/15 16:45:48;;;;;;;;;;;13.20;79.30;;;;;;4955419;29;19914;-67
2023/10/15 16:48:14;;;;;;;;;;;13.10;79.80;;;;;;4956847;28;19974;-69
2023/10/15 16:50:41;;;;;;;;;;;13.20;80.00;;;;;;4957081;28;20329;-68
2023/10/15 16:53:07;;;;;;;;;;;13.20;80.30;;;;;;4971726;28;19910;-67
2023/10/15 16:55:34;;;;;;;;;;;13.10;80.60;;;;;;4957090;28;20287;-68
2023/10/15 16:57:59;;;;;;;;;;;13.00;81.20;;;;;;4956858;28;20269;-69
2023/10/15 17:00:25;;;;;;;;;;;13.10;81.80;;;;;;4956285;28;19925;-69
2023/10/15 17:02:51;;;;;;;;;;;13.10;81.50;;;;;;4956502;28;19934;-69
2023/10/15 17:05:18;;;;;;;;;;;13.10;81.60;;;;;;4957065;28;19932;-71
2023/10/15 17:07:43;;;;;;;;;;;13.00;81.80;;;;;;4956042;29;19917;-70
2023/10/15 17:10:11;;;;;;;;;;;13.00;81.70;;;;;;4957421;28;19910;-71
2023/10/15 17:12:37;;;;;;;;;;;12.90;82.20;;;;;;4956093;29;19911;-68
2023/10/15 17:15:02;;;;;;;;;;;12.80;82.70;;;;;;4956760;28;19910;-67
2023/10/15 17:17:29;;;;;;;;;;;12.80;83.40;;;;;;4956104;28;19911;-67
2023/10/15 17:19:54;;;;;;;;;;;12.70;83.30;;;;;;4956321;28;19914;-67
2023/10/15 17:22:20;;;;;;;;;;;12.60;83.40;;;;;;4956286;28;19910;-67
2023/10/15 17:24:45;;;;;;;;;;;12.60;83.70;;;;;;4955188;29;19914;-67
2023/10/15 17:27:11;;;;;;;;;;;12.50;84.10;;;;;;4971014;28;19911;-67
2023/10/15 17:29:37;;;;;;;;;;;12.50;84.40;;;;;;4956562;28;19911;-67
2023/10/15 17:32:06;;;;;;;;;;;12.40;85.00;;;;;;4956399;28;19918;-68
2023/10/15 17:34:32;;;;;;;;;;;12.40;85.50;;;;;;4956380;28;20013;-66
2023/10/15 17:36:58;;;;;;;;;;;12.30;85.70;;;;;;4956287;28;19911;-68
2023/10/15 17:39:24;;;;;;;;;;;12.30;85.90;;;;;;4949332;28;20275;-66
2023/10/15 17:41:50;;;;;;;;;;;12.30;86.20;;;;;;4944487;29;19919;-66
2023/10/15 17:44:16;;;;;;;;;;;12.20;86.40;;;;;;4943528;29;19919;-67
2023/10/15 17:46:42;;;;;;;;;;;12.20;86.60;;;;;;4947798;28;19933;-67
2023/10/15 17:49:08;;;;;;;;;;;12.10;87.20;;;;;;4947253;28;19997;-67
2023/10/15 17:51:34;;;;;;;;;;;12.00;87.60;;;;;;4944244;29;19915;-66
2023/10/15 17:54:00;;;;;;;;;;;12.00;88.00;;;;;;4944505;29;20041;-66
2023/10/15 17:56:26;;;;;;;;;;;12.00;88.70;;;;;;4946792;28;19914;-66
2023/10/15 17:58:51;;;;;;;;;;;12.10;89.00;;;;;;4946104;29;19962;-66
2023/10/15 18:01:17;;;;;;;;;;;12.00;89.30;;;;;;4947575;28;19914;-66
2023/10/15 18:03:43;;;;;;;;;;;12.00;89.70;;;;;;4947379;28;19911;-67
2023/10/15 18:06:09;;;;;;;;;;;11.90;90.00;;;;;;4944624;29;20424;-67
2023/10/15 18:08:38;;;;;;;;;;;11.90;90.10;;;;;;4948404;29;19911;-67
2023/10/15 18:11:06;;;;;;;;;;;11.80;90.30;;;;;;4949597;28;20384;-67
2023/10/15 18:13:32;;;;;;;;;;;11.80;90.40;;;;;;4954361;29;19993;-67
2023/10/15 18:15:59;;;;;;;;;;;11.70;90.70;;;;;;4955713;28;19910;-66
2023/10/15 18:18:25;;;;;;;;;;;11.70;90.90;;;;;;4955237;28;19963;-66
2023/10/15 18:20:50;;;;;;;;;;;11.60;91.10;;;;;;4955341;28;19914;-66
2023/10/15 18:23:18;;;;;;;;;;;11.60;91.30;;;;;;4956372;28;20258;-66
2023/10/15 18:25:43;;;;;;;;;;;11.60;91.40;;;;;;4960481;28;19911;-67
2023/10/15 18:28:09;;;;;;;;;;;11.60;91.60;;;;;;4956488;28;20014;-67
2023/10/15 18:30:35;;;;;;;;;;;11.60;91.90;;;;;;4955282;28;19915;-67